createdAt,value
2023-05-09T00:01:21.062Z,101313.16
2023-05-09T00:05:30.131Z,101308.34
2023-05-09T00:09:38.023Z,101305.18
2023-05-09T00:13:45.337Z,101302.38
2023-05-09T00:17:53.790Z,101299.58
2023-05-09T00:22:01.849Z,101295.04
2023-05-09T00:26:11.235Z,101291.56
2023-05-09T00:30:23.885Z,101293.75
2023-05-09T00:34:31.273Z,101292.58
2023-05-09T00:38:38.722Z,101286.36
2023-05-09T00:42:46.766Z,101282.39
2023-05-09T00:46:54.559Z,101280.30
2023-05-09T00:51:02.650Z,101280.64
2023-05-09T00:55:11.859Z,101284.35
2023-05-09T00:59:20.323Z,101280.51
2023-05-09T01:03:27.963Z,101280.73
2023-05-09T01:07:43.796Z,101269.57
2023-05-09T01:11:57.396Z,101267.86
2023-05-09T01:16:10.974Z,101266.16
2023-05-09T01:20:25.191Z,101258.65
2023-05-09T01:24:58.275Z,101250.07
2023-05-09T01:29:31.894Z,101251.12
2023-05-09T01:33:41.836Z,101254.46
2023-05-09T01:37:52.338Z,101254.11
2023-05-09T01:42:02.582Z,101252.73
2023-05-09T01:46:11.457Z,101252.77
2023-05-09T01:50:20.844Z,101250.20
2023-05-09T01:54:28.653Z,101251.16
2023-05-09T01:58:38.401Z,101251.90
2023-05-09T02:02:46.887Z,101253.31
2023-05-09T02:06:57.065Z,101258.55
2023-05-09T02:11:04.745Z,101249.77
2023-05-09T02:15:15.016Z,101247.70
2023-05-09T02:19:23.387Z,101239.89
2023-05-09T02:23:30.948Z,101241.55
2023-05-09T02:27:39.133Z,101245.52
2023-05-09T02:31:49.319Z,101237.44
2023-05-09T02:35:57.450Z,101238.45
2023-05-09T02:40:05.799Z,101231.45
2023-05-09T02:44:14.544Z,101230.63
2023-05-09T02:48:22.792Z,101225.91
2023-05-09T02:52:31.630Z,101229.29
2023-05-09T02:56:39.857Z,101230.10
2023-05-09T03:00:47.657Z,101232.45
2023-05-09T03:04:56.718Z,101229.64
2023-05-09T03:09:04.631Z,101225.91
2023-05-09T03:13:13.225Z,101225.19
2023-05-09T03:17:23.449Z,101223.78
2023-05-09T03:21:32.107Z,101221.17
2023-05-09T03:25:39.613Z,101221.23
2023-05-09T03:29:47.717Z,101222.33
2023-05-09T03:33:55.410Z,101218.64
2023-05-09T03:38:03.143Z,101217.07
2023-05-09T03:42:12.328Z,101208.84
2023-05-09T03:46:20.208Z,101207.63
2023-05-09T03:50:28.576Z,101205.34
2023-05-09T03:54:36.686Z,101209.73
2023-05-09T03:58:44.691Z,101215.39
2023-05-09T04:02:52.739Z,101217.81
2023-05-09T04:07:00.527Z,101215.89
2023-05-09T04:11:08.682Z,101218.66
2023-05-09T04:15:16.990Z,101217.40
2023-05-09T04:19:26.401Z,101220.89
2023-05-09T04:23:34.301Z,101223.14
2023-05-09T04:27:41.880Z,101220.31
2023-05-09T04:31:50.093Z,101223.98
2023-05-09T04:35:58.626Z,101230.43
2023-05-09T04:40:09.196Z,101227.00
2023-05-09T04:44:17.756Z,101223.73
2023-05-09T04:48:25.310Z,101218.87
2023-05-09T04:52:33.665Z,101214.89
2023-05-09T04:56:41.100Z,101212.14
2023-05-09T05:00:51.357Z,101207.27
2023-05-09T05:05:10.808Z,101209.45
2023-05-09T05:09:20.152Z,101207.33
2023-05-09T05:13:27.960Z,101203.84
2023-05-09T05:17:37.008Z,101201.32
2023-05-09T05:21:44.595Z,101206.24
2023-05-09T05:25:52.657Z,101201.45
2023-05-09T05:30:02.355Z,101201.13
2023-05-09T05:34:10.307Z,101196.81
2023-05-09T05:38:17.979Z,101193.09
2023-05-09T05:42:25.907Z,101198.69
2023-05-09T05:46:34.588Z,101194.91
2023-05-09T05:50:42.558Z,101191.27
2023-05-09T05:54:50.715Z,101188.27
2023-05-09T05:58:58.611Z,101184.22
2023-05-09T06:03:06.917Z,101182.84
2023-05-09T06:07:16.035Z,101180.95
2023-05-09T06:11:23.640Z,101173.38
2023-05-09T06:15:32.038Z,101174.04
2023-05-09T06:19:40.497Z,101169.68
2023-05-09T06:24:05.891Z,101170.23
2023-05-09T06:28:17.072Z,101170.64
2023-05-09T06:32:25.153Z,101168.04
2023-05-09T06:36:33.611Z,101166.83
2023-05-09T06:40:42.197Z,101162.34
2023-05-09T06:44:50.201Z,101151.98
2023-05-09T06:48:59.042Z,101142.88
2023-05-09T06:53:06.788Z,101140.91
2023-05-09T06:57:16.247Z,101145.55
2023-05-09T07:01:24.129Z,101142.55
2023-05-09T07:05:32.012Z,101143.92
2023-05-09T07:09:39.973Z,101137.66
2023-05-09T07:13:47.509Z,101131.31
2023-05-09T07:17:56.095Z,101126.48
2023-05-09T07:22:03.806Z,101120.13
2023-05-09T07:26:12.186Z,101113.39
2023-05-09T07:30:20.155Z,101106.66
2023-05-09T07:34:27.823Z,101105.14
2023-05-09T07:38:37.531Z,101098.98
2023-05-09T07:42:50.007Z,101089.90
2023-05-09T07:46:59.431Z,101090.51
2023-05-09T07:51:07.139Z,101083.23
2023-05-09T07:55:14.920Z,101075.31
2023-05-09T07:59:23.522Z,101065.05
2023-05-09T08:03:32.424Z,101060.83
2023-05-09T08:07:40.726Z,101054.30
2023-05-09T08:11:48.507Z,101050.30
2023-05-09T08:15:56.875Z,101046.91
2023-05-09T08:20:06.241Z,101040.52
2023-05-09T08:24:14.843Z,101037.52
2023-05-09T08:28:24.297Z,101028.85
2023-05-09T08:32:32.527Z,101021.22
2023-05-09T08:36:41.473Z,101014.44
2023-05-09T08:40:49.700Z,101008.20
2023-05-09T08:44:57.762Z,101003.73
2023-05-09T08:49:08.352Z,100997.25
2023-05-09T08:53:16.902Z,100992.69
2023-05-09T08:57:25.164Z,100988.19
2023-05-09T09:01:33.532Z,100979.95
2023-05-09T09:05:43.706Z,100978.36
2023-05-09T09:09:52.180Z,100981.23
2023-05-09T09:14:04.118Z,100975.15
2023-05-09T09:18:13.721Z,100966.44
2023-05-09T09:22:22.970Z,100961.86
2023-05-09T09:26:32.146Z,100961.00
2023-05-09T09:30:47.700Z,100967.84
2023-05-09T09:35:08.195Z,100967.35
2023-05-09T09:39:16.605Z,100955.22
2023-05-09T09:43:31.806Z,100965.08
2023-05-09T09:47:40.021Z,100959.85
2023-05-09T09:51:48.400Z,100952.13
2023-05-09T09:55:56.076Z,100947.36
2023-05-09T10:00:06.453Z,100943.42
2023-05-09T10:04:19.112Z,100935.41
2023-05-09T10:08:28.744Z,100932.02
2023-05-09T10:12:40.021Z,100927.48
2023-05-09T10:16:48.138Z,100926.33
2023-05-09T10:20:57.307Z,100934.64
2023-05-09T10:25:13.274Z,100925.35
2023-05-09T10:29:23.163Z,100916.42
2023-05-09T10:33:39.680Z,100902.44
2023-05-09T10:37:48.000Z,100890.55
2023-05-09T10:41:55.386Z,100889.86
2023-05-09T10:46:04.098Z,100882.85
2023-05-09T10:50:14.183Z,100874.69
2023-05-09T10:54:32.594Z,100873.21
2023-05-09T10:58:42.183Z,100865.34
2023-05-09T11:03:09.305Z,100868.21
2023-05-09T11:07:30.566Z,100853.77
2023-05-09T11:11:54.352Z,100857.17
2023-05-09T11:16:16.249Z,100852.64
2023-05-09T11:20:31.344Z,100844.90
2023-05-09T11:24:41.594Z,100835.34
2023-05-09T11:28:56.904Z,100829.69
2023-05-09T11:33:06.847Z,100822.81
2023-05-09T11:37:16.120Z,100812.36
2023-05-09T11:41:23.989Z,100801.20
2023-05-09T11:45:34.002Z,100797.92
2023-05-09T11:49:42.022Z,100791.73
2023-05-09T11:53:54.292Z,100782.11
2023-05-09T11:58:02.670Z,100773.48
2023-05-09T12:02:10.594Z,100767.14
2023-05-09T12:06:23.018Z,100765.54
2023-05-09T12:10:30.519Z,100760.87
2023-05-09T12:14:39.367Z,100761.59
2023-05-09T12:18:51.906Z,100750.55
2023-05-09T12:22:59.701Z,100750.05
2023-05-09T12:27:08.463Z,100745.85
2023-05-09T12:31:17.973Z,100746.02
2023-05-09T12:35:26.614Z,100740.27
2023-05-09T12:39:34.033Z,100733.58
2023-05-09T12:43:44.053Z,100730.95
2023-05-09T12:47:59.101Z,100717.99
2023-05-09T12:52:09.748Z,100705.59
2023-05-09T12:56:19.092Z,100705.27
2023-05-09T13:00:27.603Z,100702.30
2023-05-09T13:04:39.305Z,100693.91
2023-05-09T13:08:58.644Z,100686.40
2023-05-09T13:13:07.560Z,100683.06
2023-05-09T13:17:16.032Z,100674.27
2023-05-09T13:21:27.006Z,100670.40
2023-05-09T13:25:34.461Z,100662.52
2023-05-09T13:29:42.983Z,100661.02
2023-05-09T13:33:51.873Z,100656.15
2023-05-09T13:38:01.268Z,100650.80
2023-05-09T13:42:09.310Z,100645.05
2023-05-09T13:46:18.066Z,100630.05
2023-05-09T13:50:27.639Z,100625.91
2023-05-09T13:54:35.598Z,100618.05
2023-05-09T13:58:43.628Z,100614.84
2023-05-09T14:02:51.470Z,100609.11
2023-05-09T14:07:00.208Z,100600.91
2023-05-09T14:11:09.570Z,100589.85
2023-05-09T14:15:17.674Z,100580.20
2023-05-09T14:19:27.270Z,100572.16
2023-05-09T14:23:34.649Z,100573.15
2023-05-09T14:27:42.368Z,100566.39
2023-05-09T14:31:49.953Z,100564.44
2023-05-09T14:36:01.432Z,100554.57
2023-05-09T14:40:11.942Z,100544.77
2023-05-09T14:44:19.659Z,100543.25
2023-05-09T14:48:27.757Z,100533.73
2023-05-09T14:52:37.391Z,100532.59
2023-05-09T14:56:45.126Z,100530.08
2023-05-09T15:00:53.548Z,100523.69
2023-05-09T15:05:01.652Z,100528.48
2023-05-09T15:09:10.353Z,100522.17
2023-05-09T15:13:19.149Z,100521.67
2023-05-09T15:17:27.875Z,100523.55
2023-05-09T15:21:35.877Z,100519.69
2023-05-09T15:25:46.399Z,100513.92
2023-05-09T15:29:55.070Z,100512.02
2023-05-09T15:34:03.065Z,100506.42
2023-05-09T15:38:12.243Z,100499.02
2023-05-09T15:42:21.069Z,100497.97
2023-05-09T15:46:28.987Z,100492.21
2023-05-09T15:50:36.768Z,100492.58
2023-05-09T15:54:45.396Z,100481.11
2023-05-09T15:58:53.456Z,100478.83
2023-05-09T16:03:05.050Z,100474.32
2023-05-09T16:07:13.850Z,100468.05
2023-05-09T16:11:22.226Z,100469.63
2023-05-09T16:15:30.076Z,100460.69
2023-05-09T16:19:38.269Z,100446.63
2023-05-09T16:23:48.463Z,100444.80
2023-05-09T16:27:58.114Z,100439.89
2023-05-09T16:32:08.025Z,100437.45
2023-05-09T16:36:17.169Z,100437.92
2023-05-09T16:40:25.404Z,100428.62
2023-05-09T16:44:33.519Z,100425.45
2023-05-09T16:48:41.070Z,100426.65
2023-05-09T16:52:50.228Z,100420.01
2023-05-09T16:56:57.975Z,100411.10
2023-05-09T17:01:06.775Z,100409.32
2023-05-09T17:05:14.525Z,100403.69
2023-05-09T17:09:22.858Z,100400.90
2023-05-09T17:13:30.816Z,100401.41
2023-05-09T17:17:39.231Z,100393.02
2023-05-09T17:21:47.143Z,100386.38
2023-05-09T17:25:55.385Z,100380.09
2023-05-09T17:30:03.397Z,100382.48
2023-05-09T17:34:11.814Z,100379.11
2023-05-09T17:38:19.794Z,100376.28
2023-05-09T17:42:27.591Z,100379.89
2023-05-09T17:46:38.452Z,100375.53
2023-05-09T17:50:47.697Z,100374.69
2023-05-09T17:54:55.844Z,100374.08
2023-05-09T17:59:04.320Z,100368.89
2023-05-09T18:03:13.094Z,100366.89
2023-05-09T18:07:21.238Z,100364.95
2023-05-09T18:11:29.989Z,100367.89
2023-05-09T18:15:38.592Z,100363.20
2023-05-09T18:19:46.798Z,100362.00
2023-05-09T18:23:55.057Z,100367.06
2023-05-09T18:28:03.020Z,100369.22
2023-05-09T18:32:15.983Z,100368.03
2023-05-09T18:36:23.689Z,100372.27
2023-05-09T18:40:32.713Z,100377.20
2023-05-09T18:44:40.652Z,100377.93
2023-05-09T18:48:51.524Z,100376.77
2023-05-09T18:53:00.185Z,100383.69
2023-05-09T18:57:11.904Z,100386.35
2023-05-09T19:01:19.728Z,100387.27
2023-05-09T19:05:29.121Z,100386.48
2023-05-09T19:09:37.598Z,100389.64
2023-05-09T19:13:49.766Z,100393.73
2023-05-09T19:17:57.712Z,100393.06
2023-05-09T19:22:07.749Z,100397.36
2023-05-09T19:26:16.253Z,100394.33
2023-05-09T19:30:25.062Z,100392.02
2023-05-09T19:34:33.695Z,100390.80
2023-05-09T19:38:41.510Z,100391.67
2023-05-09T19:42:49.789Z,100383.90
2023-05-09T19:47:00.949Z,100383.99
2023-05-09T19:51:12.420Z,100380.71
2023-05-09T19:55:20.520Z,100380.65
2023-05-09T19:59:28.666Z,100380.84
2023-05-09T20:03:38.943Z,100381.77
2023-05-09T20:07:46.908Z,100378.65
2023-05-09T20:11:56.253Z,100375.31
2023-05-09T20:16:04.562Z,100375.25
2023-05-09T20:20:14.433Z,100378.08
2023-05-09T20:24:22.458Z,100376.79
2023-05-09T20:28:30.731Z,100372.13
2023-05-09T20:32:38.445Z,100378.25
2023-05-09T20:36:52.054Z,100373.98
2023-05-09T20:41:00.196Z,100371.98
2023-05-09T20:45:09.392Z,100367.55
2023-05-09T20:49:17.264Z,100373.94
2023-05-09T20:53:27.521Z,100373.62
2023-05-09T20:57:36.425Z,100372.80
2023-05-09T21:01:44.629Z,100369.55
2023-05-09T21:05:52.686Z,100364.14
2023-05-09T21:10:02.316Z,100355.55
2023-05-09T21:14:11.996Z,100354.63
2023-05-09T21:18:20.523Z,100353.11
2023-05-09T21:22:28.618Z,100353.75
2023-05-09T21:26:36.805Z,100342.55
2023-05-09T21:30:44.719Z,100342.27
2023-05-09T21:34:52.676Z,100335.19
2023-05-09T21:39:07.510Z,100331.49
2023-05-09T21:43:18.361Z,100335.63
2023-05-09T21:47:26.790Z,100333.88
2023-05-09T21:51:35.405Z,100335.98
2023-05-09T21:55:44.582Z,100333.04
2023-05-09T21:59:53.533Z,100328.84
2023-05-09T22:04:02.751Z,100325.92
2023-05-09T22:08:10.907Z,100320.80
2023-05-09T22:12:18.716Z,100320.09
2023-05-09T22:16:27.639Z,100322.27
2023-05-09T22:20:35.453Z,100322.21
2023-05-09T22:24:45.215Z,100318.39
2023-05-09T22:28:53.179Z,100314.48
2023-05-09T22:33:03.176Z,100312.56
2023-05-09T22:37:10.860Z,100311.47
2023-05-09T22:41:18.520Z,100307.90
2023-05-09T22:45:27.093Z,100307.16
2023-05-09T22:49:35.618Z,100305.54
2023-05-09T22:53:43.360Z,100303.94
2023-05-09T22:57:51.267Z,100302.27
2023-05-09T23:01:59.964Z,100301.53
2023-05-09T23:06:08.700Z,100297.61
2023-05-09T23:10:17.110Z,100297.89
2023-05-09T23:14:25.336Z,100294.98
2023-05-09T23:18:32.948Z,100292.41
2023-05-09T23:22:40.687Z,100292.33
2023-05-09T23:26:48.463Z,100287.96
2023-05-09T23:30:56.566Z,100284.88
2023-05-09T23:35:04.810Z,100278.82
2023-05-09T23:39:12.825Z,100278.25
2023-05-09T23:43:20.308Z,100275.40
2023-05-09T23:47:27.751Z,100274.95
2023-05-09T23:51:35.438Z,100268.33
2023-05-09T23:55:43.428Z,100265.80
2023-05-09T23:59:51.376Z,100262.15
